KLAL/LAL METAR and TAF weather

Enter ICAO airport designator
Station Type Date Time Source
KLAL METAR 2018/12/17 01:50 UTC NOAA

KLAL 170150Z 31006KT 10SM BKN025 14/10 A3016


Station Type Date Time Source
KLAL Decoded METAR 2018/12/17 01:50 UTC NOAA

Lakeland Regional, FL, United States (KLAL) 27-59N 082-01W
Dec 16, 2018 - 08:50 PM EST / 2018.12.17 0150 UTC
Wind: from the NW (310 degrees) at 7 MPH (6 KT):0
Visibility: 10 mile(s):0
Sky conditions: mostly cloudy
Temperature: 57 F (14 C)
Dew Point: 50 F (10 C)
Relative Humidity: 76%
Pressure (altimeter): 30.16 in. Hg (1021 hPa)
ob: KLAL 170150Z 31006KT 10SM BKN025 14/10 A3016
cycle: 2

Station Type Date Time Source
KLAL TAF 2018/12/17 03:42 UTC NOAA

TAF
AMD KLAL 170238Z 1703/1724 VRB03KT P6SM SCT030 SCT250
TEMPO 1703/1707 BKN025
FM170700 VRB02KT P6SM SCT030 SCT250
TEMPO 1708/1712 5SM BR
FM171300 34005KT P6SM SCT035 BKN250
FM171800 33006KT P6SM FEW035 BKN250
AMD NOT SKED TIL 171200


Example: see airport list